sensor_id;sensor_type;location;lat;lon;timestamp;pressure;altitude;pressure_sealevel;temperature;humidity
42671;BME280;28283;55.426;37.756;2023-07-31T00:02:48;98646.63;;;15.84;74.04
42671;BME280;28283;55.426;37.756;2023-07-31T00:07:49;98653.53;;;15.92;74.09
42671;BME280;28283;55.426;37.756;2023-07-31T00:12:50;98650.69;;;15.81;74.17
42671;BME280;28283;55.426;37.756;2023-07-31T00:17:51;98677.72;;;15.98;73.21
42671;BME280;28283;55.426;37.756;2023-07-31T00:22:51;98653.16;;;15.66;74.62
42671;BME280;28283;55.426;37.756;2023-07-31T00:27:52;98668.06;;;15.86;74.43
42671;BME280;28283;55.426;37.756;2023-07-31T00:32:53;98661.78;;;15.80;74.65
42671;BME280;28283;55.426;37.756;2023-07-31T00:37:53;98657.59;;;15.72;74.40
42671;BME280;28283;55.426;37.756;2023-07-31T00:42:54;98655.94;;;15.71;74.50
42671;BME280;28283;55.426;37.756;2023-07-31T00:47:55;98674.09;;;15.71;74.77
42671;BME280;28283;55.426;37.756;2023-07-31T00:52:55;98641.75;;;15.42;75.24
42671;BME280;28283;55.426;37.756;2023-07-31T00:57:56;98665.09;;;15.48;75.75
42671;BME280;28283;55.426;37.756;2023-07-31T01:02:57;98656.00;;;15.54;75.06
42671;BME280;28283;55.426;37.756;2023-07-31T01:13:28;98667.66;;;15.55;75.57
42671;BME280;28283;55.426;37.756;2023-07-31T01:18:29;98621.34;;;15.17;75.88
42671;BME280;28283;55.426;37.756;2023-07-31T01:28:56;98652.34;;;15.65;75.12
42671;BME280;28283;55.426;37.756;2023-07-31T01:34:02;98601.94;;;15.42;74.54
42671;BME280;28283;55.426;37.756;2023-07-31T01:39:03;98642.78;;;15.58;74.94
42671;BME280;28283;55.426;37.756;2023-07-31T01:44:04;98648.94;;;15.53;75.41
42671;BME280;28283;55.426;37.756;2023-07-31T01:49:05;98651.16;;;15.56;74.93
42671;BME280;28283;55.426;37.756;2023-07-31T01:54:06;98642.31;;;15.44;75.51
42671;BME280;28283;55.426;37.756;2023-07-31T01:59:07;98656.09;;;15.42;76.05
42671;BME280;28283;55.426;37.756;2023-07-31T02:04:07;98643.59;;;15.19;76.42
42671;BME280;28283;55.426;37.756;2023-07-31T02:09:08;98650.72;;;15.25;76.65
42671;BME280;28283;55.426;37.756;2023-07-31T02:14:09;98655.78;;;15.39;76.34
42671;BME280;28283;55.426;37.756;2023-07-31T02:19:10;98652.50;;;15.37;76.39
42671;BME280;28283;55.426;37.756;2023-07-31T02:24:10;98642.53;;;15.20;76.80
42671;BME280;28283;55.426;37.756;2023-07-31T02:29:11;98651.69;;;15.19;77.09
42671;BME280;28283;55.426;37.756;2023-07-31T02:34:12;98648.34;;;15.12;76.97
42671;BME280;28283;55.426;37.756;2023-07-31T02:39:13;98653.13;;;15.05;77.32
42671;BME280;28283;55.426;37.756;2023-07-31T02:44:13;98671.91;;;15.12;77.63
42671;BME280;28283;55.426;37.756;2023-07-31T02:49:15;98655.97;;;14.98;78.17
42671;BME280;28283;55.426;37.756;2023-07-31T02:54:15;98681.06;;;15.11;78.00
42671;BME280;28283;55.426;37.756;2023-07-31T02:59:17;98668.19;;;15.18;77.94
42671;BME280;28283;55.426;37.756;2023-07-31T03:04:17;98654.97;;;15.38;77.05
42671;BME280;28283;55.426;37.756;2023-07-31T03:09:18;98649.81;;;15.59;76.19
42671;BME280;28283;55.426;37.756;2023-07-31T03:14:18;98644.56;;;15.52;76.46
42671;BME280;28283;55.426;37.756;2023-07-31T03:19:19;98642.94;;;15.51;77.14
42671;BME280;28283;55.426;37.756;2023-07-31T03:24:20;98657.69;;;15.60;77.07
42671;BME280;28283;55.426;37.756;2023-07-31T03:29:21;98657.44;;;15.62;77.16
42671;BME280;28283;55.426;37.756;2023-07-31T03:34:22;98631.22;;;15.68;76.51
42671;BME280;28283;55.426;37.756;2023-07-31T03:39:23;98660.44;;;15.82;76.80
42671;BME280;28283;55.426;37.756;2023-07-31T03:44:24;98665.63;;;16.06;75.59
42671;BME280;28283;55.426;37.756;2023-07-31T03:49:24;98649.34;;;16.06;75.63
42671;BME280;28283;55.426;37.756;2023-07-31T03:54:25;98672.59;;;16.24;75.38
42671;BME280;28283;55.426;37.756;2023-07-31T03:59:26;98674.34;;;16.35;75.72
42671;BME280;28283;55.426;37.756;2023-07-31T04:04:26;98654.78;;;16.33;75.78
42671;BME280;28283;55.426;37.756;2023-07-31T04:09:27;98649.19;;;16.45;75.05
42671;BME280;28283;55.426;37.756;2023-07-31T04:14:28;98671.47;;;16.79;74.42
42671;BME280;28283;55.426;37.756;2023-07-31T04:19:28;98679.03;;;17.00;74.29
42671;BME280;28283;55.426;37.756;2023-07-31T04:24:29;98670.53;;;17.28;72.41
42671;BME280;28283;55.426;37.756;2023-07-31T04:29:30;98657.78;;;17.29;72.54
42671;BME280;28283;55.426;37.756;2023-07-31T04:34:30;98669.81;;;17.43;73.14
42671;BME280;28283;55.426;37.756;2023-07-31T04:39:31;98669.72;;;17.75;70.82
42671;BME280;28283;55.426;37.756;2023-07-31T04:44:31;98673.94;;;17.99;71.37
42671;BME280;28283;55.426;37.756;2023-07-31T04:49:32;98676.13;;;18.07;70.84
42671;BME280;28283;55.426;37.756;2023-07-31T04:54:33;98667.78;;;18.29;69.89
42671;BME280;28283;55.426;37.756;2023-07-31T04:59:34;98673.22;;;18.44;69.20
42671;BME280;28283;55.426;37.756;2023-07-31T05:04:34;98685.56;;;18.98;67.09
42671;BME280;28283;55.426;37.756;2023-07-31T05:09:35;98674.94;;;18.81;68.14
42671;BME280;28283;55.426;37.756;2023-07-31T05:14:35;98684.19;;;19.26;65.71
42671;BME280;28283;55.426;37.756;2023-07-31T05:19:36;98680.09;;;19.39;63.44
42671;BME280;28283;55.426;37.756;2023-07-31T05:24:37;98689.03;;;19.76;63.15
42671;BME280;28283;55.426;37.756;2023-07-31T05:29:38;98666.69;;;19.63;62.27
42671;BME280;28283;55.426;37.756;2023-07-31T05:34:38;98687.13;;;20.36;59.24
42671;BME280;28283;55.426;37.756;2023-07-31T05:39:39;98691.31;;;20.18;59.79
42671;BME280;28283;55.426;37.756;2023-07-31T05:44:39;98687.22;;;20.71;57.41
42671;BME280;28283;55.426;37.756;2023-07-31T05:49:40;98659.75;;;20.52;58.41
42671;BME280;28283;55.426;37.756;2023-07-31T05:54:41;98693.50;;;21.06;58.02
42671;BME280;28283;55.426;37.756;2023-07-31T05:59:42;98667.41;;;20.89;56.36
42671;BME280;28283;55.426;37.756;2023-07-31T06:04:42;98691.13;;;21.28;57.08
42671;BME280;28283;55.426;37.756;2023-07-31T06:09:43;98680.25;;;21.52;55.92
42671;BME280;28283;55.426;37.756;2023-07-31T06:14:44;98683.59;;;21.73;51.82
42671;BME280;28283;55.426;37.756;2023-07-31T06:19:45;98690.09;;;21.78;52.47
42671;BME280;28283;55.426;37.756;2023-07-31T06:24:46;98688.16;;;22.26;50.43
42671;BME280;28283;55.426;37.756;2023-07-31T06:29:47;98691.41;;;22.28;48.91
42671;BME280;28283;55.426;37.756;2023-07-31T06:34:48;98690.53;;;22.33;50.55
42671;BME280;28283;55.426;37.756;2023-07-31T06:39:48;98684.03;;;22.48;50.80
42671;BME280;28283;55.426;37.756;2023-07-31T06:44:49;98686.78;;;22.67;49.63
42671;BME280;28283;55.426;37.756;2023-07-31T06:49:50;98689.88;;;22.79;49.17
42671;BME280;28283;55.426;37.756;2023-07-31T06:55:02;98697.56;;;22.77;49.25
42671;BME280;28283;55.426;37.756;2023-07-31T07:00:04;98681.25;;;22.86;49.53
42671;BME280;28283;55.426;37.756;2023-07-31T07:05:06;98697.38;;;23.25;47.97
42671;BME280;28283;55.426;37.756;2023-07-31T07:10:07;98690.94;;;23.16;45.73
42671;BME280;28283;55.426;37.756;2023-07-31T07:15:09;98684.97;;;23.14;46.30
42671;BME280;28283;55.426;37.756;2023-07-31T07:20:10;98696.84;;;23.23;45.57
42671;BME280;28283;55.426;37.756;2023-07-31T07:25:11;98677.63;;;23.42;44.23
42671;BME280;28283;55.426;37.756;2023-07-31T07:30:11;98690.94;;;23.77;42.67
42671;BME280;28283;55.426;37.756;2023-07-31T07:35:12;98695.41;;;23.59;42.03
42671;BME280;28283;55.426;37.756;2023-07-31T07:40:12;98708.44;;;23.67;43.38
42671;BME280;28283;55.426;37.756;2023-07-31T07:45:13;98703.03;;;23.76;41.82
42671;BME280;28283;55.426;37.756;2023-07-31T07:50:14;98693.63;;;23.82;42.01
42671;BME280;28283;55.426;37.756;2023-07-31T07:55:14;98682.63;;;24.10;41.58
42671;BME280;28283;55.426;37.756;2023-07-31T08:00:15;98708.66;;;23.98;41.90
42671;BME280;28283;55.426;37.756;2023-07-31T08:05:17;98702.38;;;23.98;41.42
42671;BME280;28283;55.426;37.756;2023-07-31T08:10:18;98709.88;;;24.06;41.79
42671;BME280;28283;55.426;37.756;2023-07-31T08:15:18;98708.69;;;24.12;41.09
42671;BME280;28283;55.426;37.756;2023-07-31T08:20:19;98685.72;;;24.45;41.07
42671;BME280;28283;55.426;37.756;2023-07-31T08:25:19;98715.47;;;24.29;39.84
42671;BME280;28283;55.426;37.756;2023-07-31T08:30:20;98695.16;;;24.02;40.16
42671;BME280;28283;55.426;37.756;2023-07-31T08:35:21;98712.41;;;24.30;40.09
42671;BME280;28283;55.426;37.756;2023-07-31T08:40:22;98714.22;;;24.49;38.76
42671;BME280;28283;55.426;37.756;2023-07-31T08:45:23;98722.81;;;24.19;38.90
42671;BME280;28283;55.426;37.756;2023-07-31T08:50:24;98703.72;;;24.51;39.24
42671;BME280;28283;55.426;37.756;2023-07-31T08:55:25;98721.66;;;24.48;39.96
42671;BME280;28283;55.426;37.756;2023-07-31T09:00:27;98705.47;;;24.47;39.48
42671;BME280;28283;55.426;37.756;2023-07-31T09:05:30;98736.28;;;24.44;39.79
42671;BME280;28283;55.426;37.756;2023-07-31T09:10:31;98677.94;;;24.24;40.54
42671;BME280;28283;55.426;37.756;2023-07-31T09:15:32;98727.56;;;24.55;40.55
42671;BME280;28283;55.426;37.756;2023-07-31T09:20:35;98707.97;;;24.71;38.78
42671;BME280;28283;55.426;37.756;2023-07-31T09:25:37;98719.78;;;24.71;39.29
42671;BME280;28283;55.426;37.756;2023-07-31T09:30:50;98721.59;;;24.76;39.00
42671;BME280;28283;55.426;37.756;2023-07-31T09:35:50;98722.44;;;24.76;38.33
42671;BME280;28283;55.426;37.756;2023-07-31T09:40:51;98699.44;;;24.95;39.17
42671;BME280;28283;55.426;37.756;2023-07-31T09:45:55;98720.59;;;25.31;37.14
42671;BME280;28283;55.426;37.756;2023-07-31T09:51:04;98710.69;;;25.30;36.92
42671;BME280;28283;55.426;37.756;2023-07-31T09:56:04;98691.84;;;25.46;37.04
42671;BME280;28283;55.426;37.756;2023-07-31T10:01:06;98720.88;;;25.52;35.95
42671;BME280;28283;55.426;37.756;2023-07-31T10:06:07;98715.28;;;25.97;36.15
42671;BME280;28283;55.426;37.756;2023-07-31T10:11:09;98717.41;;;26.09;36.56
42671;BME280;28283;55.426;37.756;2023-07-31T10:16:12;98715.81;;;26.25;35.70
42671;BME280;28283;55.426;37.756;2023-07-31T10:21:14;98728.66;;;25.90;36.59
42671;BME280;28283;55.426;37.756;2023-07-31T10:26:17;98726.56;;;25.56;37.51
42671;BME280;28283;55.426;37.756;2023-07-31T10:31:19;98725.66;;;25.69;37.16
42671;BME280;28283;55.426;37.756;2023-07-31T10:36:20;98720.13;;;26.00;36.75
42671;BME280;28283;55.426;37.756;2023-07-31T10:41:29;98718.03;;;26.90;35.13
42671;BME280;28283;55.426;37.756;2023-07-31T10:46:30;98721.44;;;26.78;34.78
42671;BME280;28283;55.426;37.756;2023-07-31T10:51:35;98718.03;;;26.98;33.87
42671;BME280;28283;55.426;37.756;2023-07-31T10:56:39;98725.25;;;26.33;35.71
42671;BME280;28283;55.426;37.756;2023-07-31T11:01:56;98719.56;;;26.21;35.66
42671;BME280;28283;55.426;37.756;2023-07-31T11:07:03;98726.72;;;25.90;37.22
42671;BME280;28283;55.426;37.756;2023-07-31T11:12:06;98710.81;;;25.87;37.20
42671;BME280;28283;55.426;37.756;2023-07-31T11:17:07;98703.44;;;25.97;37.32
42671;BME280;28283;55.426;37.756;2023-07-31T11:22:08;98700.72;;;26.14;37.07
42671;BME280;28283;55.426;37.756;2023-07-31T11:27:09;98721.78;;;26.10;37.94
42671;BME280;28283;55.426;37.756;2023-07-31T11:32:16;98720.81;;;25.75;38.57
42671;BME280;28283;55.426;37.756;2023-07-31T11:37:17;98721.47;;;25.80;39.30
42671;BME280;28283;55.426;37.756;2023-07-31T11:42:18;98722.97;;;26.26;38.63
42671;BME280;28283;55.426;37.756;2023-07-31T11:47:19;98713.84;;;26.83;37.47
42671;BME280;28283;55.426;37.756;2023-07-31T11:52:22;98702.09;;;27.21;35.75
42671;BME280;28283;55.426;37.756;2023-07-31T11:57:23;98715.91;;;27.13;36.66
42671;BME280;28283;55.426;37.756;2023-07-31T12:02:24;98692.31;;;27.59;35.17
42671;BME280;28283;55.426;37.756;2023-07-31T12:07:25;98702.38;;;28.02;35.18
42671;BME280;28283;55.426;37.756;2023-07-31T12:12:26;98704.91;;;27.69;35.20
42671;BME280;28283;55.426;37.756;2023-07-31T12:17:27;98724.97;;;27.48;34.09
42671;BME280;28283;55.426;37.756;2023-07-31T12:22:28;98705.69;;;27.13;34.87
42671;BME280;28283;55.426;37.756;2023-07-31T12:27:33;98730.69;;;26.99;35.31
42671;BME280;28283;55.426;37.756;2023-07-31T12:32:34;98703.59;;;26.66;35.47
42671;BME280;28283;55.426;37.756;2023-07-31T12:37:35;98718.69;;;26.78;36.04
42671;BME280;28283;55.426;37.756;2023-07-31T12:42:36;98722.41;;;26.64;37.41
42671;BME280;28283;55.426;37.756;2023-07-31T12:47:36;98728.41;;;26.84;37.15
42671;BME280;28283;55.426;37.756;2023-07-31T12:52:37;98720.78;;;26.90;36.92
42671;BME280;28283;55.426;37.756;2023-07-31T12:57:38;98716.56;;;27.27;36.79
42671;BME280;28283;55.426;37.756;2023-07-31T13:02:39;98698.72;;;27.80;36.15
42671;BME280;28283;55.426;37.756;2023-07-31T13:07:40;98718.53;;;27.91;35.83
42671;BME280;28283;55.426;37.756;2023-07-31T13:12:41;98709.69;;;27.51;35.52
42671;BME280;28283;55.426;37.756;2023-07-31T13:17:41;98722.53;;;27.47;36.51
42671;BME280;28283;55.426;37.756;2023-07-31T13:22:43;98709.75;;;27.80;37.11
42671;BME280;28283;55.426;37.756;2023-07-31T13:27:43;98716.22;;;27.37;37.10
42671;BME280;28283;55.426;37.756;2023-07-31T13:32:44;98711.72;;;26.72;38.87
42671;BME280;28283;55.426;37.756;2023-07-31T13:37:44;98675.22;;;26.92;38.12
42671;BME280;28283;55.426;37.756;2023-07-31T13:42:45;98700.19;;;26.96;37.48
42671;BME280;28283;55.426;37.756;2023-07-31T13:47:47;98717.84;;;26.51;39.25
42671;BME280;28283;55.426;37.756;2023-07-31T13:52:47;98687.16;;;26.26;40.56
42671;BME280;28283;55.426;37.756;2023-07-31T13:57:48;98678.88;;;25.78;41.57
42671;BME280;28283;55.426;37.756;2023-07-31T14:02:49;98718.13;;;25.92;42.46
42671;BME280;28283;55.426;37.756;2023-07-31T14:07:49;98727.25;;;26.01;42.09
42671;BME280;28283;55.426;37.756;2023-07-31T14:12:50;98721.13;;;25.73;41.99
42671;BME280;28283;55.426;37.756;2023-07-31T14:17:50;98707.31;;;25.64;41.56
42671;BME280;28283;55.426;37.756;2023-07-31T14:22:51;98694.16;;;25.52;41.49
42671;BME280;28283;55.426;37.756;2023-07-31T14:27:52;98714.03;;;25.49;41.36
42671;BME280;28283;55.426;37.756;2023-07-31T14:32:53;98698.63;;;25.17;41.51
42671;BME280;28283;55.426;37.756;2023-07-31T14:37:54;98721.94;;;25.20;42.13
42671;BME280;28283;55.426;37.756;2023-07-31T14:42:54;98715.06;;;24.86;43.50
42671;BME280;28283;55.426;37.756;2023-07-31T14:47:55;98713.06;;;24.64;44.38
42671;BME280;28283;55.426;37.756;2023-07-31T14:52:55;98695.09;;;24.44;45.17
42671;BME280;28283;55.426;37.756;2023-07-31T14:57:56;98723.06;;;24.46;45.75
42671;BME280;28283;55.426;37.756;2023-07-31T15:02:56;98701.53;;;24.25;46.08
42671;BME280;28283;55.426;37.756;2023-07-31T15:07:57;98697.16;;;24.24;45.84
42671;BME280;28283;55.426;37.756;2023-07-31T15:12:58;98704.50;;;24.15;46.20
42671;BME280;28283;55.426;37.756;2023-07-31T15:17:58;98712.94;;;24.05;47.25
42671;BME280;28283;55.426;37.756;2023-07-31T15:23:00;98726.75;;;24.27;46.67
42671;BME280;28283;55.426;37.756;2023-07-31T15:28:00;98695.25;;;24.11;47.01
42671;BME280;28283;55.426;37.756;2023-07-31T15:33:01;98722.06;;;24.42;46.23
42671;BME280;28283;55.426;37.756;2023-07-31T15:38:02;98730.00;;;24.29;46.62
42671;BME280;28283;55.426;37.756;2023-07-31T15:43:03;98729.50;;;24.27;46.77
42671;BME280;28283;55.426;37.756;2023-07-31T15:48:04;98705.81;;;24.04;47.54
42671;BME280;28283;55.426;37.756;2023-07-31T15:53:05;98723.50;;;24.11;47.77
42671;BME280;28283;55.426;37.756;2023-07-31T15:58:06;98698.19;;;24.14;48.49
42671;BME280;28283;55.426;37.756;2023-07-31T16:03:07;98714.72;;;24.51;48.04
42671;BME280;28283;55.426;37.756;2023-07-31T16:08:08;98717.06;;;24.57;48.08
42671;BME280;28283;55.426;37.756;2023-07-31T16:13:08;98727.34;;;24.52;48.49
42671;BME280;28283;55.426;37.756;2023-07-31T16:18:09;98712.06;;;24.46;48.55
42671;BME280;28283;55.426;37.756;2023-07-31T16:23:10;98726.84;;;24.36;48.90
42671;BME280;28283;55.426;37.756;2023-07-31T16:28:11;98721.88;;;24.24;50.61
42671;BME280;28283;55.426;37.756;2023-07-31T16:33:11;98694.53;;;23.91;51.29
42671;BME280;28283;55.426;37.756;2023-07-31T16:38:12;98706.22;;;23.83;51.25
42671;BME280;28283;55.426;37.756;2023-07-31T16:43:13;98726.56;;;24.10;50.74
42671;BME280;28283;55.426;37.756;2023-07-31T16:48:13;98725.81;;;24.60;49.54
42671;BME280;28283;55.426;37.756;2023-07-31T16:53:14;98730.88;;;24.52;49.38
42671;BME280;28283;55.426;37.756;2023-07-31T16:58:15;98739.59;;;24.18;50.67
42671;BME280;28283;55.426;37.756;2023-07-31T17:03:15;98741.50;;;24.04;50.71
42671;BME280;28283;55.426;37.756;2023-07-31T17:08:16;98725.34;;;24.16;50.55
42671;BME280;28283;55.426;37.756;2023-07-31T17:13:16;98754.59;;;24.48;50.08
42671;BME280;28283;55.426;37.756;2023-07-31T17:18:17;98745.78;;;24.24;50.48
42671;BME280;28283;55.426;37.756;2023-07-31T17:23:18;98761.53;;;23.90;51.06
42671;BME280;28283;55.426;37.756;2023-07-31T17:28:18;98770.38;;;23.54;52.46
42671;BME280;28283;55.426;37.756;2023-07-31T17:33:19;98781.91;;;23.37;53.14
42671;BME280;28283;55.426;37.756;2023-07-31T17:38:20;98784.09;;;23.21;52.80
42671;BME280;28283;55.426;37.756;2023-07-31T17:43:20;98782.41;;;23.06;53.63
42671;BME280;28283;55.426;37.756;2023-07-31T17:48:21;98795.41;;;22.96;53.91
42671;BME280;28283;55.426;37.756;2023-07-31T17:53:21;98809.19;;;22.91;53.99
42671;BME280;28283;55.426;37.756;2023-07-31T17:58:22;98811.69;;;22.87;53.73
42671;BME280;28283;55.426;37.756;2023-07-31T18:03:23;98821.53;;;22.69;54.14
42671;BME280;28283;55.426;37.756;2023-07-31T18:08:26;98822.22;;;22.56;53.80
42671;BME280;28283;55.426;37.756;2023-07-31T18:13:26;98825.69;;;22.42;54.73
42671;BME280;28283;55.426;37.756;2023-07-31T18:18:27;98833.69;;;22.39;55.10
42671;BME280;28283;55.426;37.756;2023-07-31T18:23:29;98833.00;;;22.23;56.49
42671;BME280;28283;55.426;37.756;2023-07-31T18:28:30;98814.53;;;22.09;56.46
42671;BME280;28283;55.426;37.756;2023-07-31T18:33:31;98839.41;;;22.13;59.21
42671;BME280;28283;55.426;37.756;2023-07-31T18:38:31;98837.53;;;22.08;57.08
42671;BME280;28283;55.426;37.756;2023-07-31T18:43:32;98835.44;;;22.00;57.90
42671;BME280;28283;55.426;37.756;2023-07-31T18:48:33;98845.81;;;21.98;58.51
42671;BME280;28283;55.426;37.756;2023-07-31T18:53:34;98836.66;;;21.84;59.62
42671;BME280;28283;55.426;37.756;2023-07-31T18:58:35;98832.41;;;21.72;59.96
42671;BME280;28283;55.426;37.756;2023-07-31T19:03:35;98822.38;;;21.63;58.58
42671;BME280;28283;55.426;37.756;2023-07-31T19:08:37;98826.88;;;21.48;61.00
42671;BME280;28283;55.426;37.756;2023-07-31T19:13:39;98802.38;;;21.28;61.52
42671;BME280;28283;55.426;37.756;2023-07-31T19:18:40;98810.66;;;21.17;62.23
42671;BME280;28283;55.426;37.756;2023-07-31T19:23:41;98813.69;;;21.16;62.04
42671;BME280;28283;55.426;37.756;2023-07-31T19:28:43;98825.34;;;21.27;59.62
42671;BME280;28283;55.426;37.756;2023-07-31T19:33:43;98808.47;;;21.20;59.15
42671;BME280;28283;55.426;37.756;2023-07-31T19:38:44;98837.34;;;21.31;59.14
42671;BME280;28283;55.426;37.756;2023-07-31T19:43:45;98828.97;;;21.17;60.03
42671;BME280;28283;55.426;37.756;2023-07-31T19:48:45;98836.78;;;21.34;57.94
42671;BME280;28283;55.426;37.756;2023-07-31T19:53:46;98855.97;;;21.24;58.39
42671;BME280;28283;55.426;37.756;2023-07-31T19:58:47;98845.63;;;21.15;59.06
42671;BME280;28283;55.426;37.756;2023-07-31T20:03:47;98831.25;;;21.00;59.68
42671;BME280;28283;55.426;37.756;2023-07-31T20:08:48;98845.47;;;21.02;60.16
42671;BME280;28283;55.426;37.756;2023-07-31T20:13:48;98846.84;;;20.94;59.91
42671;BME280;28283;55.426;37.756;2023-07-31T20:18:49;98848.81;;;20.88;60.38
42671;BME280;28283;55.426;37.756;2023-07-31T20:23:51;98846.69;;;20.80;61.13
42671;BME280;28283;55.426;37.756;2023-07-31T20:28:52;98853.72;;;20.86;59.04
42671;BME280;28283;55.426;37.756;2023-07-31T20:33:53;98840.19;;;20.60;62.72
42671;BME280;28283;55.426;37.756;2023-07-31T20:38:53;98855.19;;;20.53;64.09
42671;BME280;28283;55.426;37.756;2023-07-31T20:43:53;98859.84;;;20.57;61.08
42671;BME280;28283;55.426;37.756;2023-07-31T20:48:54;98849.56;;;20.18;65.73
42671;BME280;28283;55.426;37.756;2023-07-31T20:53:54;98858.56;;;20.24;62.35
42671;BME280;28283;55.426;37.756;2023-07-31T20:58:55;98856.47;;;19.80;67.52
42671;BME280;28283;55.426;37.756;2023-07-31T21:03:56;98844.16;;;19.62;68.85
42671;BME280;28283;55.426;37.756;2023-07-31T21:08:56;98856.19;;;19.76;64.43
42671;BME280;28283;55.426;37.756;2023-07-31T21:13:58;98805.44;;;19.14;69.54
42671;BME280;28283;55.426;37.756;2023-07-31T21:18:59;98846.63;;;19.33;70.36
42671;BME280;28283;55.426;37.756;2023-07-31T21:23:59;98853.69;;;19.44;65.83
42671;BME280;28283;55.426;37.756;2023-07-31T21:29:00;98849.88;;;19.30;70.34
42671;BME280;28283;55.426;37.756;2023-07-31T21:34:01;98824.25;;;19.20;70.20
42671;BME280;28283;55.426;37.756;2023-07-31T21:39:02;98843.88;;;19.43;66.93
42671;BME280;28283;55.426;37.756;2023-07-31T21:44:03;98842.22;;;19.21;71.24
42671;BME280;28283;55.426;37.756;2023-07-31T21:49:03;98843.63;;;19.29;67.22
42671;BME280;28283;55.426;37.756;2023-07-31T21:54:04;98844.94;;;19.16;69.45
42671;BME280;28283;55.426;37.756;2023-07-31T21:59:04;98843.03;;;19.27;66.19
42671;BME280;28283;55.426;37.756;2023-07-31T22:04:04;98847.97;;;19.30;66.05
42671;BME280;28283;55.426;37.756;2023-07-31T22:09:05;98841.97;;;19.33;66.10
42671;BME280;28283;55.426;37.756;2023-07-31T22:14:05;98837.06;;;19.35;65.95
42671;BME280;28283;55.426;37.756;2023-07-31T22:19:06;98835.44;;;19.39;65.86
42671;BME280;28283;55.426;37.756;2023-07-31T22:24:07;98840.34;;;19.37;65.92
42671;BME280;28283;55.426;37.756;2023-07-31T22:29:09;98836.53;;;19.33;65.96
42671;BME280;28283;55.426;37.756;2023-07-31T22:34:09;98839.50;;;19.26;65.76
42671;BME280;28283;55.426;37.756;2023-07-31T22:39:10;98836.50;;;19.18;65.92
42671;BME280;28283;55.426;37.756;2023-07-31T22:44:10;98841.09;;;19.07;65.99
42671;BME280;28283;55.426;37.756;2023-07-31T22:49:11;98846.53;;;19.02;65.55
42671;BME280;28283;55.426;37.756;2023-07-31T22:54:12;98843.53;;;18.98;65.68
42671;BME280;28283;55.426;37.756;2023-07-31T22:59:12;98851.69;;;18.93;65.31
42671;BME280;28283;55.426;37.756;2023-07-31T23:04:12;98834.50;;;18.87;65.59
42671;BME280;28283;55.426;37.756;2023-07-31T23:09:13;98829.63;;;18.89;65.49
42671;BME280;28283;55.426;37.756;2023-07-31T23:14:13;98851.97;;;18.92;65.64
42671;BME280;28283;55.426;37.756;2023-07-31T23:19:14;98859.56;;;18.89;65.30
42671;BME280;28283;55.426;37.756;2023-07-31T23:24:15;98853.84;;;18.91;65.40
42671;BME280;28283;55.426;37.756;2023-07-31T23:29:15;98852.25;;;18.95;65.79
42671;BME280;28283;55.426;37.756;2023-07-31T23:34:15;98851.97;;;18.92;65.55
42671;BME280;28283;55.426;37.756;2023-07-31T23:39:16;98846.78;;;18.90;65.70
42671;BME280;28283;55.426;37.756;2023-07-31T23:44:16;98848.97;;;18.93;66.39
42671;BME280;28283;55.426;37.756;2023-07-31T23:49:17;98844.91;;;19.01;66.56
42671;BME280;28283;55.426;37.756;2023-07-31T23:54:17;98847.09;;;18.99;67.04
42671;BME280;28283;55.426;37.756;2023-07-31T23:59:18;98851.16;;;18.96;67.42
